createdAt,value
2018-12-20T00:00:56.660Z,6.70
2018-12-20T00:03:39.128Z,6.70
2018-12-20T00:06:41.911Z,6.70
2018-12-20T00:12:50.138Z,6.60
2018-12-20T00:15:28.299Z,6.50
2018-12-20T00:18:31.270Z,6.50
2018-12-20T00:21:09.717Z,6.50
2018-12-20T00:23:51.449Z,6.50
2018-12-20T00:26:37.265Z,6.50
2018-12-20T00:33:11.118Z,6.60
2018-12-20T00:43:14.734Z,6.50
2018-12-20T00:46:17.504Z,6.50
2018-12-20T00:49:20.857Z,6.60
2018-12-20T00:52:23.876Z,6.60
2018-12-20T00:55:02.263Z,6.60
2018-12-20T00:57:43.314Z,6.70
2018-12-20T01:00:45.766Z,6.70
2018-12-20T01:03:23.112Z,6.70
2018-12-20T01:06:04.895Z,6.70
2018-12-20T01:08:44.628Z,6.80
2018-12-20T01:11:43.681Z,6.80
2018-12-20T01:14:21.863Z,6.80
2018-12-20T01:17:00.163Z,6.70
2018-12-20T01:19:42.107Z,6.70
2018-12-20T01:22:46.396Z,6.70
2018-12-20T01:25:25.994Z,6.60
2018-12-20T01:28:29.100Z,6.60
2018-12-20T01:31:32.057Z,6.60
2018-12-20T01:37:41.353Z,6.60
2018-12-20T01:40:19.500Z,6.60
2018-12-20T01:46:53.231Z,6.70
2018-12-20T01:53:01.651Z,6.70
2018-12-20T01:55:43.918Z,6.70
2018-12-20T01:58:47.630Z,6.70
2018-12-20T02:01:24.956Z,6.70
2018-12-20T02:04:19.781Z,6.60
2018-12-20T02:06:58.077Z,6.60
2018-12-20T02:13:31.627Z,6.70
2018-12-20T02:20:05.814Z,6.60
2018-12-20T02:22:44.168Z,6.60
2018-12-20T02:25:34.865Z,6.70
2018-12-20T02:28:16.278Z,6.70
2018-12-20T02:30:53.075Z,6.70
2018-12-20T02:33:34.356Z,6.80
2018-12-20T02:36:36.778Z,6.80
2018-12-20T02:39:17.518Z,6.80
2018-12-20T02:42:21.342Z,6.90
2018-12-20T02:45:24.399Z,6.90
2018-12-20T02:55:05.883Z,6.90
2018-12-20T03:01:40.304Z,7.00
2018-12-20T03:04:19.599Z,7.00
2018-12-20T03:10:28.628Z,7.10
2018-12-20T03:13:07.009Z,7.10
2018-12-20T03:16:11.447Z,7.10
2018-12-20T03:18:54.583Z,7.10
2018-12-20T03:21:37.402Z,7.10
2018-12-20T03:24:41.505Z,7.10
2018-12-20T03:27:44.678Z,7.20
2018-12-20T03:30:23.235Z,7.10
2018-12-20T03:33:26.072Z,7.10
2018-12-20T03:36:29.973Z,7.10
2018-12-20T03:39:33.175Z,7.10
2018-12-20T03:42:11.908Z,7.10
2018-12-20T03:44:51.987Z,7.00
2018-12-20T03:54:34.915Z,7.10
2018-12-20T04:04:39.172Z,7.30
2018-12-20T04:07:32.250Z,7.20
2018-12-20T04:10:11.933Z,7.20
2018-12-20T04:13:15.267Z,7.20
2018-12-20T04:15:58.122Z,7.20
2018-12-20T04:18:40.195Z,7.20
2018-12-20T04:21:19.884Z,7.20
2018-12-20T04:24:01.724Z,7.20
2018-12-20T04:26:43.254Z,7.20
2018-12-20T04:29:45.733Z,7.10
2018-12-20T04:35:54.222Z,7.10
2018-12-20T04:38:56.815Z,7.10
2018-12-20T04:45:30.195Z,7.20
2018-12-20T04:48:34.383Z,7.20
2018-12-20T04:55:07.616Z,7.20
2018-12-20T04:58:11.550Z,7.20
2018-12-20T05:00:50.035Z,7.20
2018-12-20T05:03:31.727Z,7.20
2018-12-20T05:09:42.695Z,7.20
2018-12-20T05:12:24.948Z,7.20
2018-12-20T05:18:33.981Z,7.20
2018-12-20T05:25:06.293Z,7.20
2018-12-20T05:27:45.784Z,7.20
2018-12-20T05:30:28.667Z,7.20
2018-12-20T05:33:06.966Z,7.20
2018-12-20T05:35:48.696Z,7.20
2018-12-20T05:42:22.800Z,7.20
2018-12-20T05:55:58.004Z,7.40
2018-12-20T05:58:36.307Z,7.40
2018-12-20T06:01:14.319Z,7.40
2018-12-20T06:04:13.248Z,7.50
2018-12-20T06:10:24.942Z,7.50
2018-12-20T06:27:29.190Z,7.60
2018-12-20T06:30:08.652Z,7.70
2018-12-20T06:33:11.014Z,7.70
2018-12-20T06:39:24.078Z,7.70
2018-12-20T06:42:02.290Z,7.70
2018-12-20T06:52:02.544Z,7.80
2018-12-20T06:58:25.880Z,7.70
2018-12-20T07:01:08.921Z,7.80
2018-12-20T07:03:48.710Z,7.80
2018-12-20T07:09:56.867Z,7.80
2018-12-20T07:12:35.321Z,7.80
2018-12-20T07:15:13.409Z,7.80
2018-12-20T07:18:16.116Z,7.80
2018-12-20T07:21:20.039Z,7.80
2018-12-20T07:24:18.983Z,7.80
2018-12-20T07:27:00.524Z,7.80
2018-12-20T07:30:03.439Z,7.80
2018-12-20T07:32:46.153Z,7.80
2018-12-20T07:35:49.745Z,7.80
2018-12-20T07:38:27.145Z,7.90
2018-12-20T07:41:30.184Z,7.80
2018-12-20T07:51:12.660Z,7.90
2018-12-20T07:53:50.555Z,7.90
2018-12-20T07:56:28.694Z,7.90
2018-12-20T08:03:02.171Z,7.90
2018-12-20T08:05:40.835Z,7.90
2018-12-20T08:08:20.624Z,7.90
2018-12-20T08:10:58.537Z,7.90
2018-12-20T08:14:00.877Z,7.90
2018-12-20T08:20:09.702Z,8.00
2018-12-20T08:23:12.797Z,8.00
2018-12-20T08:25:54.200Z,8.00
2018-12-20T08:28:36.862Z,7.90
2018-12-20T08:31:14.942Z,7.90
2018-12-20T08:37:48.239Z,7.90
2018-12-20T08:40:52.393Z,8.00
2018-12-20T08:43:30.979Z,8.00
2018-12-20T08:53:16.110Z,8.10
2018-12-20T08:55:54.313Z,8.10
2018-12-20T09:02:01.896Z,8.10
2018-12-20T09:05:04.864Z,8.10
2018-12-20T09:08:08.930Z,8.10
2018-12-20T09:11:11.973Z,8.10
2018-12-20T09:20:50.820Z,8.30
2018-12-20T09:23:29.527Z,8.30
2018-12-20T09:26:07.363Z,8.30
2018-12-20T09:28:45.605Z,8.40
2018-12-20T09:31:25.419Z,8.40
2018-12-20T09:34:28.482Z,8.40
2018-12-20T09:37:10.002Z,8.50
2018-12-20T09:40:12.484Z,8.50
2018-12-20T09:42:50.007Z,8.50
2018-12-20T09:45:28.355Z,8.50
2018-12-20T09:48:31.122Z,8.60
2018-12-20T09:51:34.187Z,8.60
2018-12-20T09:54:13.071Z,8.60
2018-12-20T09:56:50.063Z,8.70
2018-12-20T09:59:26.953Z,8.70
2018-12-20T10:06:00.399Z,8.70
2018-12-20T10:08:40.005Z,8.60
2018-12-20T10:11:20.902Z,8.70
2018-12-20T10:17:29.642Z,8.70
2018-12-20T10:20:13.992Z,8.80
2018-12-20T10:22:51.917Z,8.80
2018-12-20T10:25:55.086Z,8.90
2018-12-20T10:28:33.184Z,8.90
2018-12-20T10:34:42.907Z,9.00
2018-12-20T10:37:24.510Z,9.00
2018-12-20T10:40:27.938Z,8.90
2018-12-20T10:43:09.556Z,8.90
2018-12-20T10:45:52.572Z,8.90
2018-12-20T10:48:54.912Z,8.80
2018-12-20T10:55:10.785Z,8.80
2018-12-20T10:57:52.503Z,8.80
2018-12-20T11:01:00.326Z,8.70
2018-12-20T11:03:46.700Z,8.70
2018-12-20T11:06:33.360Z,8.70
2018-12-20T11:09:20.537Z,8.80
2018-12-20T11:12:06.536Z,8.80
2018-12-20T11:14:47.948Z,8.90
2018-12-20T11:17:28.229Z,9.00
2018-12-20T11:20:30.914Z,9.00
2018-12-20T11:26:40.112Z,9.00
2018-12-20T11:29:18.367Z,9.10
2018-12-20T11:32:21.996Z,9.10
2018-12-20T11:34:59.844Z,9.10
2018-12-20T11:41:08.963Z,9.10
2018-12-20T11:47:45.913Z,9.10
2018-12-20T11:50:46.757Z,9.10
2018-12-20T11:53:24.997Z,9.00
2018-12-20T11:56:28.086Z,9.00
2018-12-20T12:06:12.446Z,8.90
2018-12-20T12:08:51.975Z,8.80
2018-12-20T12:14:59.987Z,8.80
2018-12-20T12:21:09.283Z,8.70
2018-12-20T12:23:46.308Z,8.70
2018-12-20T12:26:26.071Z,8.80
2018-12-20T12:29:28.847Z,8.80
2018-12-20T12:32:10.926Z,8.80
2018-12-20T12:34:51.707Z,8.80
2018-12-20T12:40:59.396Z,8.80
2018-12-20T12:44:02.224Z,8.80
2018-12-20T12:46:40.606Z,8.80
2018-12-20T12:49:21.145Z,8.90
2018-12-20T12:51:59.207Z,8.90
2018-12-20T12:54:37.548Z,8.90
2018-12-20T12:57:15.730Z,8.80
2018-12-20T12:59:54.112Z,8.80
2018-12-20T13:02:32.540Z,8.80
2018-12-20T13:05:10.725Z,8.80
2018-12-20T13:07:50.173Z,8.70
2018-12-20T13:10:28.619Z,8.70
2018-12-20T13:13:09.147Z,8.70
2018-12-20T13:15:45.805Z,8.60
2018-12-20T13:18:48.857Z,8.60
2018-12-20T13:21:28.337Z,8.60
2018-12-20T13:24:06.731Z,8.60
2018-12-20T13:26:44.547Z,8.60
2018-12-20T13:29:21.904Z,8.70
2018-12-20T13:31:58.963Z,8.70
2018-12-20T13:34:37.195Z,8.80
2018-12-20T13:37:15.927Z,8.80
2018-12-20T13:39:55.728Z,8.70
2018-12-20T13:42:34.221Z,8.70
2018-12-20T13:45:12.119Z,8.70
2018-12-20T13:47:53.264Z,8.80
2018-12-20T13:50:31.617Z,8.80
2018-12-20T13:53:11.111Z,8.70
2018-12-20T13:55:49.565Z,8.70
2018-12-20T13:58:27.685Z,8.60
2018-12-20T14:01:06.011Z,8.60
2018-12-20T14:03:46.428Z,8.60
2018-12-20T14:06:24.611Z,8.60
2018-12-20T14:09:02.916Z,8.60
2018-12-20T14:12:06.932Z,8.60
2018-12-20T14:14:45.180Z,8.60
2018-12-20T14:17:25.951Z,8.50
2018-12-20T14:20:24.595Z,8.50
2018-12-20T14:23:07.086Z,8.50
2018-12-20T14:25:45.118Z,8.60
2018-12-20T14:28:23.330Z,8.50
2018-12-20T14:31:01.330Z,8.50
2018-12-20T14:33:43.791Z,8.50
2018-12-20T14:36:22.111Z,8.50
2018-12-20T14:39:01.811Z,8.50
2018-12-20T14:41:41.867Z,8.50
2018-12-20T14:44:20.067Z,8.50
2018-12-20T14:46:58.359Z,8.60
2018-12-20T14:49:36.824Z,8.60
2018-12-20T14:52:15.051Z,8.60
2018-12-20T14:54:56.586Z,8.60
2018-12-20T14:57:33.302Z,8.50
2018-12-20T15:00:12.332Z,8.50
2018-12-20T15:02:51.873Z,8.50
2018-12-20T15:05:34.675Z,8.50
2018-12-20T15:08:37.144Z,8.50
2018-12-20T15:14:46.147Z,8.40
2018-12-20T15:17:48.482Z,8.40
2018-12-20T15:20:50.739Z,8.40
2018-12-20T15:23:28.712Z,8.40
2018-12-20T15:26:10.399Z,8.40
2018-12-20T15:28:50.116Z,8.40
2018-12-20T15:31:31.834Z,8.40
2018-12-20T15:34:34.554Z,8.40
2018-12-20T15:37:13.109Z,8.40
2018-12-20T15:39:55.253Z,8.40
2018-12-20T15:42:57.841Z,8.30
2018-12-20T15:49:31.929Z,8.40
2018-12-20T15:52:10.511Z,8.30
2018-12-20T16:02:13.050Z,8.30
2018-12-20T16:04:52.261Z,8.30
2018-12-20T16:07:59.410Z,8.20
2018-12-20T16:10:37.141Z,8.20
2018-12-20T16:13:16.882Z,8.20
2018-12-20T16:19:50.274Z,8.20
2018-12-20T16:22:29.073Z,8.10
2018-12-20T16:25:08.778Z,8.10
2018-12-20T16:27:47.587Z,8.20
2018-12-20T16:37:29.373Z,8.20
2018-12-20T16:40:27.678Z,8.30
2018-12-20T16:43:31.019Z,8.30
2018-12-20T16:46:08.460Z,8.30
2018-12-20T16:49:13.689Z,8.30
2018-12-20T16:51:56.533Z,8.30
2018-12-20T17:01:38.518Z,8.40
2018-12-20T17:04:15.237Z,8.40
2018-12-20T17:06:56.408Z,8.50
2018-12-20T17:09:37.546Z,8.50
2018-12-20T17:15:50.319Z,8.50
2018-12-20T17:18:32.420Z,8.50
2018-12-20T17:21:35.131Z,8.50
2018-12-20T17:24:14.615Z,8.50
2018-12-20T17:26:53.890Z,8.50
2018-12-20T17:29:32.053Z,8.50
2018-12-20T17:32:10.499Z,8.60
2018-12-20T17:34:48.537Z,8.60
2018-12-20T17:40:56.692Z,8.60
2018-12-20T17:47:09.480Z,8.50
2018-12-20T17:49:49.248Z,8.50
2018-12-20T17:52:27.214Z,8.60
2018-12-20T17:58:35.803Z,8.50
2018-12-20T18:01:13.874Z,8.50
2018-12-20T18:07:47.755Z,8.60
2018-12-20T18:10:29.491Z,8.50
2018-12-20T18:16:41.872Z,8.60
2018-12-20T18:19:22.094Z,8.60
2018-12-20T18:22:02.134Z,8.60
2018-12-20T18:25:05.041Z,8.60
2018-12-20T18:27:43.865Z,8.60
2018-12-20T18:40:57.766Z,8.70
2018-12-20T18:44:01.131Z,8.70
2018-12-20T18:50:13.505Z,8.70
2018-12-20T18:52:51.503Z,8.70
2018-12-20T18:55:29.583Z,8.70
2018-12-20T18:58:10.391Z,8.80
2018-12-20T19:01:13.786Z,8.80
2018-12-20T19:03:54.653Z,8.80
2018-12-20T19:06:35.736Z,8.80
2018-12-20T19:09:21.535Z,8.80
2018-12-20T19:12:23.760Z,8.80
2018-12-20T19:18:55.922Z,8.80
2018-12-20T19:21:58.111Z,8.80
2018-12-20T19:25:01.313Z,8.80
2018-12-20T19:28:04.625Z,8.80
2018-12-20T19:30:47.364Z,8.80
2018-12-20T19:33:52.128Z,8.80
2018-12-20T19:36:33.914Z,8.80
2018-12-20T19:39:36.489Z,8.90
2018-12-20T19:42:39.465Z,8.90
2018-12-20T19:45:17.586Z,8.90
2018-12-20T19:47:58.607Z,8.90
2018-12-20T19:51:01.566Z,8.90
2018-12-20T19:53:42.837Z,9.00
2018-12-20T19:56:45.466Z,9.00
2018-12-20T19:59:48.260Z,9.00
2018-12-20T20:02:26.945Z,9.00
2018-12-20T20:05:29.415Z,9.00
2018-12-20T20:08:31.643Z,9.00
2018-12-20T20:11:13.449Z,9.00
2018-12-20T20:17:21.979Z,9.00
2018-12-20T20:23:54.896Z,9.00
2018-12-20T20:26:37.999Z,8.90
2018-12-20T20:29:42.268Z,8.90
2018-12-20T20:32:20.582Z,8.90
2018-12-20T20:35:02.309Z,8.90
2018-12-20T20:37:43.479Z,8.90
2018-12-20T20:40:46.137Z,8.90
2018-12-20T20:43:24.925Z,8.90
2018-12-20T20:46:06.279Z,8.80
2018-12-20T20:49:08.733Z,8.80
2018-12-20T20:52:11.771Z,8.80
2018-12-20T20:55:15.940Z,8.80
2018-12-20T20:57:54.646Z,8.70
2018-12-20T21:07:31.149Z,8.70
2018-12-20T21:21:05.974Z,8.60
2018-12-20T21:24:09.013Z,8.60
2018-12-20T21:26:47.370Z,8.50
2018-12-20T21:29:28.847Z,8.60
2018-12-20T21:39:33.276Z,8.50
2018-12-20T21:42:37.366Z,8.50
2018-12-20T21:45:16.188Z,8.50
2018-12-20T21:47:57.531Z,8.50
2018-12-20T21:50:39.104Z,8.40
2018-12-20T21:56:47.142Z,8.40
2018-12-20T21:59:33.548Z,8.40
2018-12-20T22:02:37.160Z,8.40
2018-12-20T22:09:10.135Z,8.30
2018-12-20T22:11:48.537Z,8.30
2018-12-20T22:14:27.025Z,8.30
2018-12-20T22:17:30.743Z,8.30
2018-12-20T22:20:15.630Z,8.20
2018-12-20T22:22:55.310Z,8.20
2018-12-20T22:25:58.122Z,8.20
2018-12-20T22:28:36.567Z,8.20
2018-12-20T22:31:18.463Z,8.20
2018-12-20T22:33:58.179Z,8.20
2018-12-20T22:37:00.902Z,8.20
2018-12-20T22:40:04.111Z,8.20
2018-12-20T22:46:13.855Z,8.20
2018-12-20T22:49:16.345Z,8.30
2018-12-20T22:51:54.963Z,8.20
2018-12-20T22:54:58.463Z,8.20
2018-12-20T22:57:36.493Z,8.20
2018-12-20T23:00:21.006Z,8.20
2018-12-20T23:02:59.067Z,8.30
2018-12-20T23:05:39.877Z,8.30
2018-12-20T23:08:18.376Z,8.30
2018-12-20T23:14:26.366Z,8.30
2018-12-20T23:17:08.218Z,8.30
2018-12-20T23:19:48.465Z,8.30
2018-12-20T23:26:21.550Z,8.30
2018-12-20T23:32:31.626Z,8.40
2018-12-20T23:35:09.696Z,8.40
2018-12-20T23:38:11.952Z,8.40
2018-12-20T23:41:15.034Z,8.40
2018-12-20T23:44:19.174Z,8.40
2018-12-20T23:46:57.457Z,8.40
2018-12-20T23:49:35.831Z,8.40
2018-12-20T23:52:14.611Z,8.40
2018-12-20T23:54:55.575Z,8.40
